Terminal Aerodrome Forecast
Issued by NWS Sterling, VA

Current Version | Previous Version | Text Only | Print | Product List | Glossary Off
Versions: 1 2 3 4 5 6 7 8 9 10 11 12 13 14

000
FTUS41 KLWX 242300
TAFMRB
TAF
KMRB 242328Z 2500/2524 00000KT P6SM BKN060
     FM250600 00000KT 5SM BR SCT250
     FM251300 00000KT P6SM FEW250
     FM251900 11006KT P6SM FEW040 FEW250=

USA.gov is the U.S. government's official web portal to all federal, state and local government web resources and services.